sensor_id;sensor_type;location;lat;lon;timestamp;P1;durP1;ratioP1;P2;durP2;ratioP2
45368;SDS011;51342;55.250;37.668;2022-09-09T00:04:26;9.17;;;4.60;;
45368;SDS011;51342;55.250;37.668;2022-09-09T00:15:35;8.33;;;4.20;;
45368;SDS011;51342;55.250;37.668;2022-09-09T00:18:25;7.87;;;4.50;;
45368;SDS011;51342;55.250;37.668;2022-09-09T00:23:57;8.07;;;4.33;;
45368;SDS011;51342;55.250;37.668;2022-09-09T00:26:35;8.53;;;4.73;;
45368;SDS011;51342;55.250;37.668;2022-09-09T00:32:11;6.70;;;4.33;;
45368;SDS011;51342;55.250;37.668;2022-09-09T00:34:55;7.03;;;4.30;;
45368;SDS011;51342;55.250;37.668;2022-09-09T00:37:30;9.73;;;4.80;;
45368;SDS011;51342;55.250;37.668;2022-09-09T00:40:05;8.27;;;4.10;;
45368;SDS011;51342;55.250;37.668;2022-09-09T00:43:10;6.85;;;3.95;;
45368;SDS011;51342;55.250;37.668;2022-09-09T00:48:30;8.50;;;4.70;;
45368;SDS011;51342;55.250;37.668;2022-09-09T00:54:26;5.63;;;3.83;;
45368;SDS011;51342;55.250;37.668;2022-09-09T01:08:19;8.80;;;4.30;;
45368;SDS011;51342;55.250;37.668;2022-09-09T01:11:04;8.00;;;4.33;;
45368;SDS011;51342;55.250;37.668;2022-09-09T01:13:42;6.53;;;4.03;;
45368;SDS011;51342;55.250;37.668;2022-09-09T01:16:16;6.93;;;4.17;;
45368;SDS011;51342;55.250;37.668;2022-09-09T01:18:49;5.83;;;3.83;;
45368;SDS011;51342;55.250;37.668;2022-09-09T01:21:46;6.70;;;3.93;;
45368;SDS011;51342;55.250;37.668;2022-09-09T01:24:38;5.13;;;4.03;;
45368;SDS011;51342;55.250;37.668;2022-09-09T01:27:48;6.13;;;3.90;;
45368;SDS011;51342;55.250;37.668;2022-09-09T01:30:22;7.03;;;3.83;;
45368;SDS011;51342;55.250;37.668;2022-09-09T01:32:55;6.17;;;3.50;;
45368;SDS011;51342;55.250;37.668;2022-09-09T01:35:36;5.83;;;3.63;;
45368;SDS011;51342;55.250;37.668;2022-09-09T01:38:12;6.13;;;4.30;;
45368;SDS011;51342;55.250;37.668;2022-09-09T01:40:46;10.73;;;4.10;;
45368;SDS011;51342;55.250;37.668;2022-09-09T01:43:19;8.63;;;4.60;;
45368;SDS011;51342;55.250;37.668;2022-09-09T01:45:53;8.47;;;5.23;;
45368;SDS011;51342;55.250;37.668;2022-09-09T01:48:27;7.53;;;4.50;;
45368;SDS011;51342;55.250;37.668;2022-09-09T01:51:13;6.43;;;3.90;;
45368;SDS011;51342;55.250;37.668;2022-09-09T01:53:45;7.63;;;4.50;;
45368;SDS011;51342;55.250;37.668;2022-09-09T02:10:22;7.60;;;4.50;;
45368;SDS011;51342;55.250;37.668;2022-09-09T02:13:09;6.25;;;4.68;;
45368;SDS011;51342;55.250;37.668;2022-09-09T02:15:53;7.00;;;4.13;;
45368;SDS011;51342;55.250;37.668;2022-09-09T02:18:35;7.47;;;4.37;;
45368;SDS011;51342;55.250;37.668;2022-09-09T02:21:16;7.22;;;4.60;;
45368;SDS011;51342;55.250;37.668;2022-09-09T02:23:48;7.60;;;5.10;;
45368;SDS011;51342;55.250;37.668;2022-09-09T02:26:24;7.40;;;4.60;;
45368;SDS011;51342;55.250;37.668;2022-09-09T02:29:04;7.27;;;5.07;;
45368;SDS011;51342;55.250;37.668;2022-09-09T02:31:39;6.70;;;4.47;;
45368;SDS011;51342;55.250;37.668;2022-09-09T02:34:19;5.77;;;4.30;;
45368;SDS011;51342;55.250;37.668;2022-09-09T02:36:53;8.20;;;5.20;;
45368;SDS011;51342;55.250;37.668;2022-09-09T02:39:26;9.13;;;4.33;;
45368;SDS011;51342;55.250;37.668;2022-09-09T02:41:57;6.17;;;4.23;;
45368;SDS011;51342;55.250;37.668;2022-09-09T02:44:35;8.35;;;4.40;;
45368;SDS011;51342;55.250;37.668;2022-09-09T02:52:50;6.63;;;4.57;;
45368;SDS011;51342;55.250;37.668;2022-09-09T02:56:09;6.70;;;4.33;;
45368;SDS011;51342;55.250;37.668;2022-09-09T02:58:45;7.03;;;4.53;;
45368;SDS011;51342;55.250;37.668;2022-09-09T03:01:17;8.47;;;4.40;;
45368;SDS011;51342;55.250;37.668;2022-09-09T03:03:49;6.47;;;4.13;;
45368;SDS011;51342;55.250;37.668;2022-09-09T03:06:22;7.20;;;4.37;;
45368;SDS011;51342;55.250;37.668;2022-09-09T03:09:01;6.83;;;4.50;;
45368;SDS011;51342;55.250;37.668;2022-09-09T03:11:34;8.70;;;5.10;;
45368;SDS011;51342;55.250;37.668;2022-09-09T03:14:06;6.70;;;4.53;;
45368;SDS011;51342;55.250;37.668;2022-09-09T03:16:40;7.43;;;4.70;;
45368;SDS011;51342;55.250;37.668;2022-09-09T03:19:14;8.03;;;5.27;;
45368;SDS011;51342;55.250;37.668;2022-09-09T03:21:46;6.17;;;4.30;;
45368;SDS011;51342;55.250;37.668;2022-09-09T03:24:18;7.07;;;5.00;;
45368;SDS011;51342;55.250;37.668;2022-09-09T03:26:50;7.67;;;5.13;;
45368;SDS011;51342;55.250;37.668;2022-09-09T03:29:22;8.60;;;5.50;;
45368;SDS011;51342;55.250;37.668;2022-09-09T03:31:53;9.00;;;5.13;;
45368;SDS011;51342;55.250;37.668;2022-09-09T03:34:25;7.90;;;5.33;;
45368;SDS011;51342;55.250;37.668;2022-09-09T03:36:57;7.97;;;5.27;;
45368;SDS011;51342;55.250;37.668;2022-09-09T03:39:29;6.57;;;4.70;;
45368;SDS011;51342;55.250;37.668;2022-09-09T03:42:03;7.53;;;5.37;;
45368;SDS011;51342;55.250;37.668;2022-09-09T03:44:35;6.43;;;4.97;;
45368;SDS011;51342;55.250;37.668;2022-09-09T03:47:07;6.33;;;4.50;;
45368;SDS011;51342;55.250;37.668;2022-09-09T03:49:39;7.13;;;4.57;;
45368;SDS011;51342;55.250;37.668;2022-09-09T03:52:11;6.40;;;4.43;;
45368;SDS011;51342;55.250;37.668;2022-09-09T03:54:43;7.80;;;4.70;;
45368;SDS011;51342;55.250;37.668;2022-09-09T03:57:18;6.47;;;4.20;;
45368;SDS011;51342;55.250;37.668;2022-09-09T03:59:50;7.53;;;5.77;;
45368;SDS011;51342;55.250;37.668;2022-09-09T04:02:22;9.47;;;6.60;;
45368;SDS011;51342;55.250;37.668;2022-09-09T04:04:53;8.83;;;5.50;;
45368;SDS011;51342;55.250;37.668;2022-09-09T04:07:25;6.70;;;4.57;;
45368;SDS011;51342;55.250;37.668;2022-09-09T04:09:58;7.30;;;5.10;;
45368;SDS011;51342;55.250;37.668;2022-09-09T04:12:29;5.00;;;3.87;;
45368;SDS011;51342;55.250;37.668;2022-09-09T04:15:01;5.90;;;4.20;;
45368;SDS011;51342;55.250;37.668;2022-09-09T04:17:33;7.73;;;4.80;;
45368;SDS011;51342;55.250;37.668;2022-09-09T04:20:05;6.27;;;4.07;;
45368;SDS011;51342;55.250;37.668;2022-09-09T04:22:37;7.13;;;5.30;;
45368;SDS011;51342;55.250;37.668;2022-09-09T04:25:11;8.43;;;5.17;;
45368;SDS011;51342;55.250;37.668;2022-09-09T04:27:42;8.50;;;4.33;;
45368;SDS011;51342;55.250;37.668;2022-09-09T04:30:15;5.47;;;3.80;;
45368;SDS011;51342;55.250;37.668;2022-09-09T04:32:47;6.47;;;3.80;;
45368;SDS011;51342;55.250;37.668;2022-09-09T04:35:19;6.83;;;3.90;;
45368;SDS011;51342;55.250;37.668;2022-09-09T04:37:51;6.07;;;4.20;;
45368;SDS011;51342;55.250;37.668;2022-09-09T04:40:23;5.60;;;4.67;;
45368;SDS011;51342;55.250;37.668;2022-09-09T04:42:57;5.07;;;4.00;;
45368;SDS011;51342;55.250;37.668;2022-09-09T04:45:29;6.70;;;3.60;;
45368;SDS011;51342;55.250;37.668;2022-09-09T04:48:01;5.27;;;3.93;;
45368;SDS011;51342;55.250;37.668;2022-09-09T04:50:34;9.10;;;3.93;;
45368;SDS011;51342;55.250;37.668;2022-09-09T04:53:06;4.97;;;3.73;;
45368;SDS011;51342;55.250;37.668;2022-09-09T04:55:39;5.33;;;3.60;;
45368;SDS011;51342;55.250;37.668;2022-09-09T04:58:11;5.77;;;4.00;;
45368;SDS011;51342;55.250;37.668;2022-09-09T05:00:43;5.43;;;3.57;;
45368;SDS011;51342;55.250;37.668;2022-09-09T05:03:15;5.27;;;4.10;;
45368;SDS011;51342;55.250;37.668;2022-09-09T05:05:46;6.30;;;4.03;;
45368;SDS011;51342;55.250;37.668;2022-09-09T05:08:18;5.77;;;4.07;;
45368;SDS011;51342;55.250;37.668;2022-09-09T05:10:52;6.43;;;4.10;;
45368;SDS011;51342;55.250;37.668;2022-09-09T05:13:24;5.23;;;4.00;;
45368;SDS011;51342;55.250;37.668;2022-09-09T05:15:57;10.20;;;4.43;;
45368;SDS011;51342;55.250;37.668;2022-09-09T05:18:29;5.67;;;3.50;;
45368;SDS011;51342;55.250;37.668;2022-09-09T05:21:01;5.37;;;3.60;;
45368;SDS011;51342;55.250;37.668;2022-09-09T05:23:34;5.87;;;3.73;;
45368;SDS011;51342;55.250;37.668;2022-09-09T05:26:06;4.63;;;3.23;;
45368;SDS011;51342;55.250;37.668;2022-09-09T05:28:40;6.00;;;3.33;;
45368;SDS011;51342;55.250;37.668;2022-09-09T05:31:12;6.07;;;3.17;;
45368;SDS011;51342;55.250;37.668;2022-09-09T05:33:46;4.50;;;3.57;;
45368;SDS011;51342;55.250;37.668;2022-09-09T05:36:20;4.87;;;2.93;;
45368;SDS011;51342;55.250;37.668;2022-09-09T05:38:56;3.13;;;2.70;;
45368;SDS011;51342;55.250;37.668;2022-09-09T05:41:30;4.50;;;2.90;;
45368;SDS011;51342;55.250;37.668;2022-09-09T05:44:05;4.13;;;2.80;;
45368;SDS011;51342;55.250;37.668;2022-09-09T05:46:42;4.57;;;2.80;;
45368;SDS011;51342;55.250;37.668;2022-09-09T05:49:13;6.27;;;2.50;;
45368;SDS011;51342;55.250;37.668;2022-09-09T05:51:46;5.27;;;2.60;;
45368;SDS011;51342;55.250;37.668;2022-09-09T05:54:21;3.70;;;2.10;;
45368;SDS011;51342;55.250;37.668;2022-09-09T05:56:56;5.17;;;2.30;;
45368;SDS011;51342;55.250;37.668;2022-09-09T05:59:28;3.80;;;2.17;;
45368;SDS011;51342;55.250;37.668;2022-09-09T06:02:01;3.42;;;1.90;;
45368;SDS011;51342;55.250;37.668;2022-09-09T06:04:39;2.75;;;1.85;;
45368;SDS011;51342;55.250;37.668;2022-09-09T06:07:12;2.87;;;1.70;;
45368;SDS011;51342;55.250;37.668;2022-09-09T06:09:45;3.83;;;2.07;;
45368;SDS011;51342;55.250;37.668;2022-09-09T06:12:17;3.40;;;2.23;;
45368;SDS011;51342;55.250;37.668;2022-09-09T06:14:49;3.72;;;1.95;;
45368;SDS011;51342;55.250;37.668;2022-09-09T06:17:23;4.25;;;2.10;;
45368;SDS011;51342;55.250;37.668;2022-09-09T06:19:55;3.67;;;1.65;;
45368;SDS011;51342;55.250;37.668;2022-09-09T06:22:27;3.50;;;1.70;;
45368;SDS011;51342;55.250;37.668;2022-09-09T06:24:58;4.05;;;1.92;;
45368;SDS011;51342;55.250;37.668;2022-09-09T06:27:32;3.13;;;1.92;;
45368;SDS011;51342;55.250;37.668;2022-09-09T06:30:04;3.67;;;1.40;;
45368;SDS011;51342;55.250;37.668;2022-09-09T06:32:36;4.80;;;1.70;;
45368;SDS011;51342;55.250;37.668;2022-09-09T06:35:08;3.30;;;1.50;;
45368;SDS011;51342;55.250;37.668;2022-09-09T06:37:44;3.78;;;1.38;;
45368;SDS011;51342;55.250;37.668;2022-09-09T06:40:16;4.95;;;1.75;;
45368;SDS011;51342;55.250;37.668;2022-09-09T06:42:48;4.32;;;1.80;;
45368;SDS011;51342;55.250;37.668;2022-09-09T06:45:36;1.92;;;1.10;;
45368;SDS011;51342;55.250;37.668;2022-09-09T06:48:08;2.53;;;1.40;;
45368;SDS011;51342;55.250;37.668;2022-09-09T06:50:40;2.95;;;1.10;;
45368;SDS011;51342;55.250;37.668;2022-09-09T06:53:11;4.82;;;1.30;;
45368;SDS011;51342;55.250;37.668;2022-09-09T06:55:43;3.42;;;1.08;;
45368;SDS011;51342;55.250;37.668;2022-09-09T06:58:16;4.10;;;1.00;;
45368;SDS011;51342;55.250;37.668;2022-09-09T07:00:48;2.95;;;0.90;;
45368;SDS011;51342;55.250;37.668;2022-09-09T07:03:20;1.95;;;0.93;;
45368;SDS011;51342;55.250;37.668;2022-09-09T07:05:55;3.70;;;1.02;;
45368;SDS011;51342;55.250;37.668;2022-09-09T07:08:28;2.75;;;1.10;;
45368;SDS011;51342;55.250;37.668;2022-09-09T07:11:02;1.63;;;0.95;;
45368;SDS011;51342;55.250;37.668;2022-09-09T07:13:41;2.20;;;0.70;;
45368;SDS011;51342;55.250;37.668;2022-09-09T07:16:15;1.60;;;0.80;;
45368;SDS011;51342;55.250;37.668;2022-09-09T07:18:48;3.35;;;1.10;;
45368;SDS011;51342;55.250;37.668;2022-09-09T07:21:21;2.67;;;1.20;;
45368;SDS011;51342;55.250;37.668;2022-09-09T07:23:53;1.52;;;0.80;;
45368;SDS011;51342;55.250;37.668;2022-09-09T07:26:26;3.70;;;0.80;;
45368;SDS011;51342;55.250;37.668;2022-09-09T07:28:59;3.65;;;1.20;;
45368;SDS011;51342;55.250;37.668;2022-09-09T07:31:31;1.83;;;0.82;;
45368;SDS011;51342;55.250;37.668;2022-09-09T07:34:06;1.30;;;0.90;;
45368;SDS011;51342;55.250;37.668;2022-09-09T07:36:38;1.52;;;0.98;;
45368;SDS011;51342;55.250;37.668;2022-09-09T07:39:13;2.80;;;1.02;;
45368;SDS011;51342;55.250;37.668;2022-09-09T07:41:50;3.05;;;1.27;;
45368;SDS011;51342;55.250;37.668;2022-09-09T07:44:25;2.28;;;1.10;;
45368;SDS011;51342;55.250;37.668;2022-09-09T07:47:06;2.33;;;0.85;;
45368;SDS011;51342;55.250;37.668;2022-09-09T07:49:44;1.83;;;1.00;;
45368;SDS011;51342;55.250;37.668;2022-09-09T07:52:19;1.77;;;0.95;;
45368;SDS011;51342;55.250;37.668;2022-09-09T07:54:52;2.53;;;1.10;;
45368;SDS011;51342;55.250;37.668;2022-09-09T07:57:24;1.90;;;0.90;;
45368;SDS011;51342;55.250;37.668;2022-09-09T07:59:57;2.80;;;1.08;;
45368;SDS011;51342;55.250;37.668;2022-09-09T08:02:29;3.92;;;1.00;;
45368;SDS011;51342;55.250;37.668;2022-09-09T08:05:00;2.00;;;0.80;;
45368;SDS011;51342;55.250;37.668;2022-09-09T08:07:32;3.50;;;1.25;;
45368;SDS011;51342;55.250;37.668;2022-09-09T08:10:04;2.83;;;0.90;;
45368;SDS011;51342;55.250;37.668;2022-09-09T08:12:38;1.77;;;1.10;;
45368;SDS011;51342;55.250;37.668;2022-09-09T08:15:10;2.55;;;0.80;;
45368;SDS011;51342;55.250;37.668;2022-09-09T08:17:42;2.83;;;0.70;;
45368;SDS011;51342;55.250;37.668;2022-09-09T08:20:14;1.45;;;0.65;;
45368;SDS011;51342;55.250;37.668;2022-09-09T08:22:46;1.55;;;0.60;;
45368;SDS011;51342;55.250;37.668;2022-09-09T08:25:19;1.77;;;0.60;;
45368;SDS011;51342;55.250;37.668;2022-09-09T08:27:52;1.92;;;1.02;;
45368;SDS011;51342;55.250;37.668;2022-09-09T08:30:24;2.30;;;1.85;;
45368;SDS011;51342;55.250;37.668;2022-09-09T08:32:56;1.80;;;0.88;;
45368;SDS011;51342;55.250;37.668;2022-09-09T08:35:27;1.98;;;0.88;;
45368;SDS011;51342;55.250;37.668;2022-09-09T08:38:03;1.40;;;0.88;;
45368;SDS011;51342;55.250;37.668;2022-09-09T08:40:35;1.38;;;0.90;;
45368;SDS011;51342;55.250;37.668;2022-09-09T08:43:11;3.85;;;1.15;;
45368;SDS011;51342;55.250;37.668;2022-09-09T08:45:49;1.77;;;1.10;;
45368;SDS011;51342;55.250;37.668;2022-09-09T08:51:13;3.28;;;1.10;;
45368;SDS011;51342;55.250;37.668;2022-09-09T08:53:46;2.35;;;1.05;;
45368;SDS011;51342;55.250;37.668;2022-09-09T08:56:21;1.40;;;0.90;;
45368;SDS011;51342;55.250;37.668;2022-09-09T08:58:59;2.65;;;0.90;;
45368;SDS011;51342;55.250;37.668;2022-09-09T09:10:46;2.78;;;1.15;;
45368;SDS011;51342;55.250;37.668;2022-09-09T09:13:34;4.70;;;1.30;;
45368;SDS011;51342;55.250;37.668;2022-09-09T09:16:34;5.28;;;1.05;;
45368;SDS011;51342;55.250;37.668;2022-09-09T09:19:21;2.90;;;1.00;;
45368;SDS011;51342;55.250;37.668;2022-09-09T09:27:32;3.22;;;1.10;;
45368;SDS011;51342;55.250;37.668;2022-09-09T09:32:57;1.35;;;0.80;;
45368;SDS011;51342;55.250;37.668;2022-09-09T09:35:33;2.03;;;1.10;;
45368;SDS011;51342;55.250;37.668;2022-09-09T09:38:20;1.63;;;0.98;;
45368;SDS011;51342;55.250;37.668;2022-09-09T09:40:59;1.60;;;0.90;;
45368;SDS011;51342;55.250;37.668;2022-09-09T09:43:36;1.30;;;0.93;;
45368;SDS011;51342;55.250;37.668;2022-09-09T09:46:22;1.92;;;0.95;;
45368;SDS011;51342;55.250;37.668;2022-09-09T09:49:03;1.38;;;0.90;;
45368;SDS011;51342;55.250;37.668;2022-09-09T09:51:37;1.95;;;1.00;;
45368;SDS011;51342;55.250;37.668;2022-09-09T09:54:13;3.17;;;1.13;;
45368;SDS011;51342;55.250;37.668;2022-09-09T09:57:07;2.38;;;0.90;;
45368;SDS011;51342;55.250;37.668;2022-09-09T09:59:44;1.38;;;0.95;;
45368;SDS011;51342;55.250;37.668;2022-09-09T10:02:22;1.73;;;0.93;;
45368;SDS011;51342;55.250;37.668;2022-09-09T10:05:08;2.13;;;1.13;;
45368;SDS011;51342;55.250;37.668;2022-09-09T10:07:46;2.47;;;0.85;;
45368;SDS011;51342;55.250;37.668;2022-09-09T10:10:23;1.02;;;0.85;;
45368;SDS011;51342;55.250;37.668;2022-09-09T10:13:11;2.47;;;1.20;;
45368;SDS011;51342;55.250;37.668;2022-09-09T10:18:55;2.00;;;1.00;;
45368;SDS011;51342;55.250;37.668;2022-09-09T10:27:33;2.47;;;1.00;;
45368;SDS011;51342;55.250;37.668;2022-09-09T10:30:18;2.55;;;0.85;;
45368;SDS011;51342;55.250;37.668;2022-09-09T10:35:33;4.00;;;1.20;;
45368;SDS011;51342;55.250;37.668;2022-09-09T10:38:30;3.70;;;1.45;;
45368;SDS011;51342;55.250;37.668;2022-09-09T10:52:54;1.77;;;1.23;;
45368;SDS011;51342;55.250;37.668;2022-09-09T10:55:43;1.45;;;0.98;;
45368;SDS011;51342;55.250;37.668;2022-09-09T10:58:25;3.83;;;1.10;;
45368;SDS011;51342;55.250;37.668;2022-09-09T11:01:23;4.10;;;1.25;;
45368;SDS011;51342;55.250;37.668;2022-09-09T11:04:05;1.30;;;1.00;;
45368;SDS011;51342;55.250;37.668;2022-09-09T11:06:49;5.75;;;1.65;;
45368;SDS011;51342;55.250;37.668;2022-09-09T11:09:26;1.70;;;1.33;;
45368;SDS011;51342;55.250;37.668;2022-09-09T11:12:01;2.50;;;1.40;;
45368;SDS011;51342;55.250;37.668;2022-09-09T11:14:44;2.90;;;1.48;;
45368;SDS011;51342;55.250;37.668;2022-09-09T11:17:35;3.33;;;1.30;;
45368;SDS011;51342;55.250;37.668;2022-09-09T11:20:12;4.35;;;1.45;;
45368;SDS011;51342;55.250;37.668;2022-09-09T11:25:37;3.25;;;1.30;;
45368;SDS011;51342;55.250;37.668;2022-09-09T11:39:38;2.75;;;1.50;;
45368;SDS011;51342;55.250;37.668;2022-09-09T11:42:18;3.28;;;1.23;;
45368;SDS011;51342;55.250;37.668;2022-09-09T11:44:52;3.55;;;1.00;;
45368;SDS011;51342;55.250;37.668;2022-09-09T11:47:28;2.28;;;1.25;;
45368;SDS011;51342;55.250;37.668;2022-09-09T11:55:44;2.67;;;1.35;;
45368;SDS011;51342;55.250;37.668;2022-09-09T11:58:16;2.38;;;1.20;;
45368;SDS011;51342;55.250;37.668;2022-09-09T12:00:50;4.80;;;1.20;;
45368;SDS011;51342;55.250;37.668;2022-09-09T12:09:06;3.92;;;1.55;;
45368;SDS011;51342;55.250;37.668;2022-09-09T12:11:46;4.25;;;1.77;;
45368;SDS011;51342;55.250;37.668;2022-09-09T12:17:29;2.85;;;1.95;;
45368;SDS011;51342;55.250;37.668;2022-09-09T12:20:18;2.70;;;1.27;;
45368;SDS011;51342;55.250;37.668;2022-09-09T12:32:07;2.92;;;1.40;;
45368;SDS011;51342;55.250;37.668;2022-09-09T12:37:52;4.20;;;1.00;;
45368;SDS011;51342;55.250;37.668;2022-09-09T12:40:33;3.10;;;1.00;;
45368;SDS011;51342;55.250;37.668;2022-09-09T12:43:18;1.95;;;1.00;;
45368;SDS011;51342;55.250;37.668;2022-09-09T12:45:53;3.20;;;1.15;;
45368;SDS011;51342;55.250;37.668;2022-09-09T12:48:36;4.13;;;1.10;;
45368;SDS011;51342;55.250;37.668;2022-09-09T12:51:21;1.90;;;1.00;;
45368;SDS011;51342;55.250;37.668;2022-09-09T12:53:59;2.88;;;1.10;;
45368;SDS011;51342;55.250;37.668;2022-09-09T12:56:32;2.08;;;0.85;;
45368;SDS011;51342;55.250;37.668;2022-09-09T12:59:04;3.25;;;1.20;;
45368;SDS011;51342;55.250;37.668;2022-09-09T13:01:35;1.98;;;0.95;;
45368;SDS011;51342;55.250;37.668;2022-09-09T13:04:20;4.32;;;1.20;;
45368;SDS011;51342;55.250;37.668;2022-09-09T13:06:53;2.80;;;1.30;;
45368;SDS011;51342;55.250;37.668;2022-09-09T13:09:24;3.08;;;1.02;;
45368;SDS011;51342;55.250;37.668;2022-09-09T13:11:57;1.20;;;1.00;;
45368;SDS011;51342;55.250;37.668;2022-09-09T13:14:30;3.10;;;0.95;;
45368;SDS011;51342;55.250;37.668;2022-09-09T13:17:05;3.53;;;0.95;;
45368;SDS011;51342;55.250;37.668;2022-09-09T13:19:38;1.65;;;0.80;;
45368;SDS011;51342;55.250;37.668;2022-09-09T13:25:02;2.55;;;0.98;;
45368;SDS011;51342;55.250;37.668;2022-09-09T13:27:37;3.97;;;1.10;;
45368;SDS011;51342;55.250;37.668;2022-09-09T13:30:21;2.30;;;1.10;;
45368;SDS011;51342;55.250;37.668;2022-09-09T13:38:18;3.00;;;1.25;;
45368;SDS011;51342;55.250;37.668;2022-09-09T13:41:00;1.98;;;1.13;;
45368;SDS011;51342;55.250;37.668;2022-09-09T13:43:38;2.90;;;1.40;;
45368;SDS011;51342;55.250;37.668;2022-09-09T13:46:32;2.70;;;1.20;;
45368;SDS011;51342;55.250;37.668;2022-09-09T13:51:41;5.10;;;1.23;;
45368;SDS011;51342;55.250;37.668;2022-09-09T13:54:18;3.20;;;1.13;;
45368;SDS011;51342;55.250;37.668;2022-09-09T13:56:50;4.00;;;1.08;;
45368;SDS011;51342;55.250;37.668;2022-09-09T13:59:22;1.60;;;0.90;;
45368;SDS011;51342;55.250;37.668;2022-09-09T14:01:55;2.33;;;1.10;;
45368;SDS011;51342;55.250;37.668;2022-09-09T14:04:28;4.13;;;1.08;;
45368;SDS011;51342;55.250;37.668;2022-09-09T14:06:59;2.65;;;0.75;;
45368;SDS011;51342;55.250;37.668;2022-09-09T14:09:31;3.63;;;1.00;;
45368;SDS011;51342;55.250;37.668;2022-09-09T14:12:02;2.05;;;1.10;;
45368;SDS011;51342;55.250;37.668;2022-09-09T14:14:34;1.80;;;1.00;;
45368;SDS011;51342;55.250;37.668;2022-09-09T14:17:05;4.55;;;1.23;;
45368;SDS011;51342;55.250;37.668;2022-09-09T14:19:37;4.00;;;1.50;;
45368;SDS011;51342;55.250;37.668;2022-09-09T14:22:09;3.28;;;1.50;;
45368;SDS011;51342;55.250;37.668;2022-09-09T14:24:40;5.35;;;2.65;;
45368;SDS011;51342;55.250;37.668;2022-09-09T14:27:11;5.32;;;2.33;;
45368;SDS011;51342;55.250;37.668;2022-09-09T14:29:43;5.50;;;2.30;;
45368;SDS011;51342;55.250;37.668;2022-09-09T14:32:15;6.75;;;3.40;;
45368;SDS011;51342;55.250;37.668;2022-09-09T14:34:46;4.03;;;1.45;;
45368;SDS011;51342;55.250;37.668;2022-09-09T14:37:20;3.53;;;1.00;;
45368;SDS011;51342;55.250;37.668;2022-09-09T14:39:52;3.60;;;1.30;;
45368;SDS011;51342;55.250;37.668;2022-09-09T14:42:24;2.03;;;1.30;;
45368;SDS011;51342;55.250;37.668;2022-09-09T14:44:57;2.47;;;0.93;;
45368;SDS011;51342;55.250;37.668;2022-09-09T14:47:28;2.92;;;1.00;;
45368;SDS011;51342;55.250;37.668;2022-09-09T14:50:01;2.25;;;1.20;;
45368;SDS011;51342;55.250;37.668;2022-09-09T14:52:34;2.42;;;1.13;;
45368;SDS011;51342;55.250;37.668;2022-09-09T14:55:06;2.45;;;1.15;;
45368;SDS011;51342;55.250;37.668;2022-09-09T14:57:38;2.55;;;0.90;;
45368;SDS011;51342;55.250;37.668;2022-09-09T15:00:10;2.35;;;1.20;;
45368;SDS011;51342;55.250;37.668;2022-09-09T15:02:43;2.88;;;1.13;;
45368;SDS011;51342;55.250;37.668;2022-09-09T15:05:14;1.63;;;1.00;;
45368;SDS011;51342;55.250;37.668;2022-09-09T15:07:47;1.33;;;0.70;;
45368;SDS011;51342;55.250;37.668;2022-09-09T15:10:21;3.17;;;0.80;;
45368;SDS011;51342;55.250;37.668;2022-09-09T15:12:53;1.98;;;0.90;;
45368;SDS011;51342;55.250;37.668;2022-09-09T15:15:24;1.90;;;1.00;;
45368;SDS011;51342;55.250;37.668;2022-09-09T15:17:57;1.20;;;0.90;;
45368;SDS011;51342;55.250;37.668;2022-09-09T15:20:29;1.70;;;0.90;;
45368;SDS011;51342;55.250;37.668;2022-09-09T15:23:00;1.50;;;0.82;;
45368;SDS011;51342;55.250;37.668;2022-09-09T15:25:32;1.73;;;0.90;;
45368;SDS011;51342;55.250;37.668;2022-09-09T15:28:03;2.28;;;0.80;;
45368;SDS011;51342;55.250;37.668;2022-09-09T15:30:34;2.25;;;1.10;;
45368;SDS011;51342;55.250;37.668;2022-09-09T15:33:09;1.42;;;0.90;;
45368;SDS011;51342;55.250;37.668;2022-09-09T15:35:42;2.10;;;0.90;;
45368;SDS011;51342;55.250;37.668;2022-09-09T15:38:14;2.60;;;1.25;;
45368;SDS011;51342;55.250;37.668;2022-09-09T15:40:52;2.33;;;1.13;;
45368;SDS011;51342;55.250;37.668;2022-09-09T15:43:25;2.22;;;0.80;;
45368;SDS011;51342;55.250;37.668;2022-09-09T15:45:58;2.67;;;0.93;;
45368;SDS011;51342;55.250;37.668;2022-09-09T15:48:37;1.50;;;0.98;;
45368;SDS011;51342;55.250;37.668;2022-09-09T15:51:09;2.25;;;1.15;;
45368;SDS011;51342;55.250;37.668;2022-09-09T15:53:41;3.42;;;1.35;;
45368;SDS011;51342;55.250;37.668;2022-09-09T15:56:13;2.78;;;1.40;;
45368;SDS011;51342;55.250;37.668;2022-09-09T15:58:44;3.70;;;1.48;;
45368;SDS011;51342;55.250;37.668;2022-09-09T16:01:16;3.72;;;1.20;;
45368;SDS011;51342;55.250;37.668;2022-09-09T16:03:49;3.28;;;1.60;;
45368;SDS011;51342;55.250;37.668;2022-09-09T16:06:22;12.38;;;9.05;;
45368;SDS011;51342;55.250;37.668;2022-09-09T16:08:56;30.00;;;26.70;;
45368;SDS011;51342;55.250;37.668;2022-09-09T16:11:33;20.03;;;17.93;;
45368;SDS011;51342;55.250;37.668;2022-09-09T16:14:07;11.93;;;7.50;;
45368;SDS011;51342;55.250;37.668;2022-09-09T16:16:38;9.90;;;6.37;;
45368;SDS011;51342;55.250;37.668;2022-09-09T16:19:11;10.83;;;6.23;;
45368;SDS011;51342;55.250;37.668;2022-09-09T16:21:44;144.97;;;75.77;;
45368;SDS011;51342;55.250;37.668;2022-09-09T16:24:18;155.43;;;80.23;;
45368;SDS011;51342;55.250;37.668;2022-09-09T16:26:52;62.57;;;33.60;;
45368;SDS011;51342;55.250;37.668;2022-09-09T16:29:25;12.70;;;7.60;;
45368;SDS011;51342;55.250;37.668;2022-09-09T16:31:59;20.63;;;11.93;;
45368;SDS011;51342;55.250;37.668;2022-09-09T16:34:30;21.57;;;14.63;;
45368;SDS011;51342;55.250;37.668;2022-09-09T16:37:04;14.13;;;10.83;;
45368;SDS011;51342;55.250;37.668;2022-09-09T16:39:35;6.80;;;5.43;;
45368;SDS011;51342;55.250;37.668;2022-09-09T16:42:07;6.37;;;4.53;;
45368;SDS011;51342;55.250;37.668;2022-09-09T16:44:38;9.83;;;6.60;;
45368;SDS011;51342;55.250;37.668;2022-09-09T16:47:09;11.57;;;8.27;;
45368;SDS011;51342;55.250;37.668;2022-09-09T16:49:41;10.40;;;6.27;;
45368;SDS011;51342;55.250;37.668;2022-09-09T16:52:13;10.17;;;6.93;;
45368;SDS011;51342;55.250;37.668;2022-09-09T16:54:44;7.60;;;5.70;;
45368;SDS011;51342;55.250;37.668;2022-09-09T16:57:16;19.37;;;13.10;;
45368;SDS011;51342;55.250;37.668;2022-09-09T16:59:47;21.47;;;13.53;;
45368;SDS011;51342;55.250;37.668;2022-09-09T17:02:20;19.67;;;13.37;;
45368;SDS011;51342;55.250;37.668;2022-09-09T17:04:51;23.17;;;16.53;;
45368;SDS011;51342;55.250;37.668;2022-09-09T17:07:24;27.33;;;17.10;;
45368;SDS011;51342;55.250;37.668;2022-09-09T17:09:55;27.37;;;18.80;;
45368;SDS011;51342;55.250;37.668;2022-09-09T17:12:27;28.83;;;19.50;;
45368;SDS011;51342;55.250;37.668;2022-09-09T17:14:58;27.17;;;19.43;;
45368;SDS011;51342;55.250;37.668;2022-09-09T17:17:31;27.23;;;19.43;;
45368;SDS011;51342;55.250;37.668;2022-09-09T17:20:03;29.67;;;21.13;;
45368;SDS011;51342;55.250;37.668;2022-09-09T17:22:37;26.40;;;18.37;;
45368;SDS011;51342;55.250;37.668;2022-09-09T17:25:08;25.60;;;19.17;;
45368;SDS011;51342;55.250;37.668;2022-09-09T17:27:41;25.40;;;19.30;;
45368;SDS011;51342;55.250;37.668;2022-09-09T17:30:12;24.57;;;18.90;;
45368;SDS011;51342;55.250;37.668;2022-09-09T17:32:44;23.70;;;18.03;;
45368;SDS011;51342;55.250;37.668;2022-09-09T17:35:15;24.80;;;19.07;;
45368;SDS011;51342;55.250;37.668;2022-09-09T17:37:47;19.33;;;15.13;;
45368;SDS011;51342;55.250;37.668;2022-09-09T17:40:18;21.87;;;16.30;;
45368;SDS011;51342;55.250;37.668;2022-09-09T17:42:51;21.57;;;13.40;;
45368;SDS011;51342;55.250;37.668;2022-09-09T17:45:22;17.63;;;12.93;;
45368;SDS011;51342;55.250;37.668;2022-09-09T17:47:54;18.87;;;13.13;;